»·PEaware :: N1187 KPSP-KSBA

N1187 :: KPSP-KSBA

FLIGHT INFORMATION

Flight Status: Arrived
Operator: Privately registered:
United States
More flights under this callsign
Pilot: Anonymous 12254 (12254)
Aircraft: PILATUS PC-12 EAGLE
(PC12)
More flights by this aircraft type
Origin: KPSP Palm Springs Intl
United States
Destination: KSBA Santa Barbara Mun
United States
More flights between these airports :: More routes between these airports
Route: +CATH1 PSP V388 DEWAY POM VNY V186 DEANO V27 KWANG
File this flight plan on PilotEdge
Remarks: TEC Route PSPP17
Altitude:
(Current/Filed)
12,000ft
Speed:
(Current/Filed)
210kts
Departed: 27-Jul-19 09:26 AM
Arrived: 27-Jul-19 10:20 AM
Distance/Time
Traveled:
169nm/0:54
Distance/Time
To Go:
Arrived

Flight Plot

Page will automatically refresh every two minutes.

Flight plan parsing failed; only flown route is shown


Map Options




Map Legend


Flown Route
Filed Route
Departure Airport
Arrival Airport
Navaid (VOR, NDB)
Fix

Horizontal Profiles

Position Reports

Time Latitude Longitude Heading Altitude Ground
Speed
27-Jul-19 09:10 33.829014 -116.511875 90 431ft 0kts
27-Jul-19 09:11 33.829014 -116.511875 90 431ft 0kts
27-Jul-19 09:12 33.829014 -116.511875 90 431ft 0kts
27-Jul-19 09:13 33.829014 -116.511875 90 431ft 0kts
27-Jul-19 09:14 33.829014 -116.511875 90 431ft 0kts
27-Jul-19 09:15 33.829014 -116.511875 90 431ft 0kts
27-Jul-19 09:16 33.829014 -116.511875 90 431ft 0kts
27-Jul-19 09:17 33.829014 -116.511875 90 431ft 0kts
27-Jul-19 09:18 33.829014 -116.511875 90 431ft 0kts
27-Jul-19 09:19 33.829014 -116.511875 90 431ft 0kts
27-Jul-19 09:20 33.828726 -116.510932 128 429ft 8kts
27-Jul-19 09:21 33.828659 -116.510691 88 428ft 0kts
27-Jul-19 09:22 33.826488 -116.506854 143 417ft 22kts
27-Jul-19 09:23 33.821384 -116.502326 144 403ft 22kts
27-Jul-19 09:24 33.818534 -116.499124 89 396ft 0kts
27-Jul-19 09:25 33.824843 -116.503350 321 411ft 116kts
27-Jul-19 09:26 33.853562 -116.531008 318 1636ft 136kts
27-Jul-19 09:27 33.889679 -116.565746 327 3095ft 186kts
27-Jul-19 09:28 33.913413 -116.531299 115 4829ft 178kts
27-Jul-19 09:29 33.890568 -116.477588 120 6614ft 183kts
27-Jul-19 09:30 33.869171 -116.420926 91 8371ft 195kts
27-Jul-19 09:31 33.905793 -116.403909 292 10124ft 174kts
27-Jul-19 09:32 33.897937 -116.461494 258 11646ft 182kts
27-Jul-19 09:33 33.896058 -116.526942 285 11934ft 223kts
27-Jul-19 09:34 33.914245 -116.600641 286 11928ft 233kts
27-Jul-19 09:35 33.932941 -116.676322 286 11927ft 235kts
27-Jul-19 09:36 33.948480 -116.752875 268 11849ft 239kts
27-Jul-19 09:37 33.945479 -116.832887 268 11835ft 237kts
27-Jul-19 09:38 33.942777 -116.911742 268 11835ft 236kts
27-Jul-19 09:39 33.939984 -116.991251 268 11834ft 236kts
27-Jul-19 09:40 33.942662 -117.069850 284 11596ft 236kts
27-Jul-19 09:41 33.957848 -117.147309 282 10587ft 237kts
27-Jul-19 09:42 33.972675 -117.224802 281 9582ft 237kts
27-Jul-19 09:43 33.987521 -117.302832 280 8576ft 238kts
27-Jul-19 09:44 34.002305 -117.380965 280 7839ft 237kts
27-Jul-19 09:45 34.016746 -117.457762 280 7835ft 232kts
27-Jul-19 09:46 34.031036 -117.533607 280 7835ft 231kts
27-Jul-19 09:47 34.045232 -117.609299 280 7835ft 230kts
27-Jul-19 09:48 34.059149 -117.683821 279 7837ft 230kts
27-Jul-19 09:49 34.073258 -117.759577 279 7837ft 231kts
27-Jul-19 09:50 34.077597 -117.835944 266 7837ft 228kts
27-Jul-19 09:51 34.076462 -117.913060 266 7836ft 228kts
27-Jul-19 09:52 34.075249 -117.989249 266 7836ft 228kts
27-Jul-19 09:54 34.093025 -118.063502 287 7836ft 232kts
27-Jul-19 09:55 34.114827 -118.134644 287 7833ft 232kts
27-Jul-19 09:56 34.137160 -118.207817 287 7833ft 232kts
27-Jul-19 09:57 34.159446 -118.280817 287 7833ft 232kts
27-Jul-19 09:58 34.179704 -118.354863 275 7730ft 232kts
27-Jul-19 09:59 34.188846 -118.434498 275 6721ft 243kts
27-Jul-19 10:00 34.198269 -118.516110 275 5846ft 241kts
27-Jul-19 10:01 34.207129 -118.593168 275 5846ft 225kts
27-Jul-19 10:02 34.215317 -118.665019 274 5852ft 222kts
27-Jul-19 10:03 34.223746 -118.739206 274 5852ft 222kts
27-Jul-19 10:04 34.232154 -118.813564 274 5852ft 222kts
27-Jul-19 10:05 34.240469 -118.887523 274 5852ft 222kts
27-Jul-19 10:06 34.248770 -118.961754 274 5852ft 222kts
27-Jul-19 10:07 34.257023 -119.035964 274 5852ft 222kts
27-Jul-19 10:08 34.265214 -119.110050 274 5852ft 222kts
27-Jul-19 10:09 34.273381 -119.184316 274 5852ft 222kts
27-Jul-19 10:10 34.281507 -119.258650 274 5852ft 222kts
27-Jul-19 10:11 34.289591 -119.332885 274 5852ft 222kts
27-Jul-19 10:12 34.297601 -119.407000 274 5852ft 222kts
27-Jul-19 10:13 34.305582 -119.481266 274 5852ft 222kts
27-Jul-19 10:14 34.323090 -119.553102 291 5852ft 225kts
27-Jul-19 10:14 34.344212 -119.611250 292 5711ft 232kts
27-Jul-19 10:16 34.376452 -119.695343 292 4194ft 228kts
27-Jul-19 10:16 34.405577 -119.745617 318 2537ft 201kts
27-Jul-19 10:17 34.427606 -119.793729 275 1092ft 147kts
27-Jul-19 10:19 34.427790 -119.839755 266 13ft 67kts
27-Jul-19 10:19 34.426893 -119.846350 173 14ft 0kts
27-Jul-19 10:20 34.426577 -119.843559 87 14ft 28kts
27-Jul-19 10:21 34.424785 -119.837755 166 13ft 19kts

Navigation Log

Ident Type
Flight plan parsing failed, navigation log unavailable